sensor_id;sensor_type;location;lat;lon;timestamp;P1;durP1;ratioP1;P2;durP2;ratioP2
22715;SDS011;11525;51.152;4.456;2022-10-31T00:53:15;25.63;;;16.02;;
22715;SDS011;11525;51.152;4.456;2022-10-31T00:55:53;30.95;;;17.45;;
22715;SDS011;11525;51.152;4.456;2022-10-31T00:58:25;27.35;;;17.40;;
22715;SDS011;11525;51.152;4.456;2022-10-31T01:11:53;27.95;;;18.13;;
22715;SDS011;11525;51.152;4.456;2022-10-31T01:14:19;30.48;;;19.55;;
22715;SDS011;11525;51.152;4.456;2022-10-31T01:16:48;35.03;;;20.00;;
22715;SDS011;11525;51.152;4.456;2022-10-31T02:10:01;39.33;;;21.85;;
22715;SDS011;11525;51.152;4.456;2022-10-31T02:20:10;29.95;;;20.27;;
22715;SDS011;11525;51.152;4.456;2022-10-31T02:33:11;40.35;;;22.70;;
22715;SDS011;11525;51.152;4.456;2022-10-31T03:09:00;27.92;;;19.48;;
22715;SDS011;11525;51.152;4.456;2022-10-31T03:11:46;30.65;;;20.23;;
22715;SDS011;11525;51.152;4.456;2022-10-31T03:45:22;32.53;;;21.17;;
22715;SDS011;11525;51.152;4.456;2022-10-31T03:48:09;34.67;;;20.33;;
22715;SDS011;11525;51.152;4.456;2022-10-31T03:50:42;32.50;;;21.92;;
22715;SDS011;11525;51.152;4.456;2022-10-31T04:07:43;31.92;;;20.35;;
22715;SDS011;11525;51.152;4.456;2022-10-31T04:10:16;33.25;;;20.15;;
22715;SDS011;11525;51.152;4.456;2022-10-31T04:40:12;30.17;;;20.88;;
22715;SDS011;11525;51.152;4.456;2022-10-31T05:11:31;33.20;;;21.52;;
22715;SDS011;11525;51.152;4.456;2022-10-31T05:13:57;27.45;;;19.58;;
22715;SDS011;11525;51.152;4.456;2022-10-31T05:19:15;29.48;;;21.02;;
22715;SDS011;11525;51.152;4.456;2022-10-31T05:21:41;29.75;;;19.58;;
22715;SDS011;11525;51.152;4.456;2022-10-31T05:24:07;29.88;;;20.52;;
22715;SDS011;11525;51.152;4.456;2022-10-31T05:26:34;29.88;;;20.85;;
22715;SDS011;11525;51.152;4.456;2022-10-31T05:29:00;29.55;;;20.15;;
22715;SDS011;11525;51.152;4.456;2022-10-31T05:31:26;30.02;;;20.63;;
22715;SDS011;11525;51.152;4.456;2022-10-31T05:33:55;32.22;;;21.15;;
22715;SDS011;11525;51.152;4.456;2022-10-31T05:43:22;28.25;;;20.25;;
22715;SDS011;11525;51.152;4.456;2022-10-31T06:12:45;29.13;;;19.20;;
22715;SDS011;11525;51.152;4.456;2022-10-31T06:18:41;30.88;;;18.95;;
22715;SDS011;11525;51.152;4.456;2022-10-31T06:28:38;24.70;;;16.67;;
22715;SDS011;11525;51.152;4.456;2022-10-31T06:41:51;30.75;;;19.15;;
22715;SDS011;11525;51.152;4.456;2022-10-31T06:48:33;27.90;;;21.05;;
22715;SDS011;11525;51.152;4.456;2022-10-31T06:57:59;27.00;;;20.13;;
22715;SDS011;11525;51.152;4.456;2022-10-31T07:01:07;29.65;;;20.73;;
22715;SDS011;11525;51.152;4.456;2022-10-31T07:08:01;30.55;;;20.00;;
22715;SDS011;11525;51.152;4.456;2022-10-31T07:11:04;31.50;;;19.85;;
22715;SDS011;11525;51.152;4.456;2022-10-31T07:17:28;28.45;;;19.90;;
22715;SDS011;11525;51.152;4.456;2022-10-31T07:20:00;30.33;;;20.63;;
22715;SDS011;11525;51.152;4.456;2022-10-31T07:26:16;32.67;;;20.10;;
22715;SDS011;11525;51.152;4.456;2022-10-31T07:35:25;27.38;;;17.63;;
22715;SDS011;11525;51.152;4.456;2022-10-31T07:45:23;26.90;;;18.40;;
22715;SDS011;11525;51.152;4.456;2022-10-31T07:48:25;28.48;;;18.45;;
22715;SDS011;11525;51.152;4.456;2022-10-31T07:54:56;22.92;;;15.52;;
22715;SDS011;11525;51.152;4.456;2022-10-31T08:01:51;23.58;;;17.60;;
22715;SDS011;11525;51.152;4.456;2022-10-31T08:04:52;25.63;;;19.08;;
22715;SDS011;11525;51.152;4.456;2022-10-31T08:14:04;30.60;;;18.88;;
22715;SDS011;11525;51.152;4.456;2022-10-31T08:16:29;28.08;;;18.25;;
22715;SDS011;11525;51.152;4.456;2022-10-31T08:18:55;25.52;;;18.83;;
22715;SDS011;11525;51.152;4.456;2022-10-31T08:21:21;30.42;;;18.98;;
22715;SDS011;11525;51.152;4.456;2022-10-31T08:23:47;32.03;;;20.10;;
22715;SDS011;11525;51.152;4.456;2022-10-31T08:26:12;27.98;;;17.80;;
22715;SDS011;11525;51.152;4.456;2022-10-31T08:28:38;26.60;;;19.48;;
22715;SDS011;11525;51.152;4.456;2022-10-31T08:31:04;26.67;;;18.80;;
22715;SDS011;11525;51.152;4.456;2022-10-31T08:33:30;28.23;;;20.58;;
22715;SDS011;11525;51.152;4.456;2022-10-31T08:35:59;30.23;;;19.88;;
22715;SDS011;11525;51.152;4.456;2022-10-31T08:38:25;29.67;;;20.15;;
22715;SDS011;11525;51.152;4.456;2022-10-31T08:40:51;25.10;;;17.02;;
22715;SDS011;11525;51.152;4.456;2022-10-31T08:43:17;27.33;;;17.55;;
22715;SDS011;11525;51.152;4.456;2022-10-31T08:45:44;31.60;;;17.77;;
22715;SDS011;11525;51.152;4.456;2022-10-31T08:48:13;27.13;;;17.23;;
22715;SDS011;11525;51.152;4.456;2022-10-31T08:50:40;22.30;;;15.63;;
22715;SDS011;11525;51.152;4.456;2022-10-31T08:53:07;27.50;;;16.85;;
22715;SDS011;11525;51.152;4.456;2022-10-31T08:55:37;23.75;;;17.77;;
22715;SDS011;11525;51.152;4.456;2022-10-31T08:58:04;31.65;;;17.38;;
22715;SDS011;11525;51.152;4.456;2022-10-31T09:00:32;21.65;;;16.45;;
22715;SDS011;11525;51.152;4.456;2022-10-31T09:02:59;28.98;;;17.10;;
22715;SDS011;11525;51.152;4.456;2022-10-31T09:05:29;26.25;;;17.25;;
22715;SDS011;11525;51.152;4.456;2022-10-31T09:07:59;29.70;;;16.95;;
22715;SDS011;11525;51.152;4.456;2022-10-31T09:10:26;24.75;;;17.15;;
22715;SDS011;11525;51.152;4.456;2022-10-31T09:12:54;24.83;;;17.65;;
22715;SDS011;11525;51.152;4.456;2022-10-31T09:15:24;25.45;;;17.23;;
22715;SDS011;11525;51.152;4.456;2022-10-31T09:17:51;25.15;;;16.65;;
22715;SDS011;11525;51.152;4.456;2022-10-31T09:20:17;30.30;;;17.92;;
22715;SDS011;11525;51.152;4.456;2022-10-31T09:22:43;26.20;;;17.83;;
22715;SDS011;11525;51.152;4.456;2022-10-31T09:25:09;27.80;;;18.25;;
22715;SDS011;11525;51.152;4.456;2022-10-31T09:27:35;27.20;;;18.73;;
22715;SDS011;11525;51.152;4.456;2022-10-31T09:30:04;27.75;;;18.60;;
22715;SDS011;11525;51.152;4.456;2022-10-31T09:32:30;25.90;;;18.23;;
22715;SDS011;11525;51.152;4.456;2022-10-31T09:35:00;24.52;;;18.90;;
22715;SDS011;11525;51.152;4.456;2022-10-31T09:37:35;30.40;;;18.70;;
22715;SDS011;11525;51.152;4.456;2022-10-31T09:40:27;31.38;;;20.58;;
22715;SDS011;11525;51.152;4.456;2022-10-31T10:46:54;28.02;;;19.33;;
22715;SDS011;11525;51.152;4.456;2022-10-31T10:49:49;30.00;;;19.85;;
22715;SDS011;11525;51.152;4.456;2022-10-31T10:59:39;32.88;;;19.63;;
22715;SDS011;11525;51.152;4.456;2022-10-31T11:02:15;32.30;;;20.30;;
22715;SDS011;11525;51.152;4.456;2022-10-31T11:04:57;29.73;;;20.42;;
22715;SDS011;11525;51.152;4.456;2022-10-31T11:07:37;33.78;;;21.40;;
22715;SDS011;11525;51.152;4.456;2022-10-31T11:10:15;31.63;;;21.05;;
22715;SDS011;11525;51.152;4.456;2022-10-31T11:13:21;31.13;;;21.05;;
22715;SDS011;11525;51.152;4.456;2022-10-31T11:23:32;41.65;;;23.15;;
22715;SDS011;11525;51.152;4.456;2022-10-31T11:29:26;38.30;;;25.40;;
22715;SDS011;11525;51.152;4.456;2022-10-31T11:32:24;39.03;;;23.70;;
22715;SDS011;11525;51.152;4.456;2022-10-31T11:35:39;36.22;;;25.27;;
22715;SDS011;11525;51.152;4.456;2022-10-31T11:37:56;35.53;;;23.00;;
22715;SDS011;11525;51.152;4.456;2022-10-31T11:41:03;39.22;;;24.98;;
22715;SDS011;11525;51.152;4.456;2022-10-31T11:47:02;34.30;;;24.23;;
22715;SDS011;11525;51.152;4.456;2022-10-31T11:50:08;38.90;;;23.42;;
22715;SDS011;11525;51.152;4.456;2022-10-31T11:53:03;41.08;;;23.35;;
22715;SDS011;11525;51.152;4.456;2022-10-31T12:18:58;43.85;;;24.42;;
22715;SDS011;11525;51.152;4.456;2022-10-31T12:22:08;37.40;;;24.88;;
22715;SDS011;11525;51.152;4.456;2022-10-31T12:32:30;35.08;;;21.00;;
22715;SDS011;11525;51.152;4.456;2022-10-31T12:38:46;34.30;;;22.02;;
22715;SDS011;11525;51.152;4.456;2022-10-31T12:41:22;36.20;;;22.27;;
22715;SDS011;11525;51.152;4.456;2022-10-31T12:47:05;36.22;;;22.48;;
22715;SDS011;11525;51.152;4.456;2022-10-31T12:50:06;34.63;;;21.02;;
22715;SDS011;11525;51.152;4.456;2022-10-31T12:53:24;37.80;;;21.98;;
22715;SDS011;11525;51.152;4.456;2022-10-31T13:01:21;36.22;;;21.48;;
22715;SDS011;11525;51.152;4.456;2022-10-31T13:06:59;37.60;;;21.98;;
22715;SDS011;11525;51.152;4.456;2022-10-31T13:12:29;39.17;;;22.30;;
22715;SDS011;11525;51.152;4.456;2022-10-31T13:15:19;41.00;;;21.15;;
22715;SDS011;11525;51.152;4.456;2022-10-31T13:17:51;32.70;;;19.52;;
22715;SDS011;11525;51.152;4.456;2022-10-31T13:20:27;31.52;;;20.77;;
22715;SDS011;11525;51.152;4.456;2022-10-31T13:23:22;37.92;;;20.60;;
22715;SDS011;11525;51.152;4.456;2022-10-31T13:25:58;32.08;;;18.40;;
22715;SDS011;11525;51.152;4.456;2022-10-31T13:28:36;31.83;;;19.55;;
22715;SDS011;11525;51.152;4.456;2022-10-31T13:31:10;31.75;;;16.88;;
22715;SDS011;11525;51.152;4.456;2022-10-31T13:33:41;30.05;;;17.80;;
22715;SDS011;11525;51.152;4.456;2022-10-31T13:36:37;29.65;;;17.80;;
22715;SDS011;11525;51.152;4.456;2022-10-31T13:44:49;30.55;;;16.63;;
22715;SDS011;11525;51.152;4.456;2022-10-31T13:47:23;27.17;;;15.88;;
22715;SDS011;11525;51.152;4.456;2022-10-31T13:50:06;28.42;;;15.63;;
22715;SDS011;11525;51.152;4.456;2022-10-31T13:52:48;22.77;;;12.48;;
22715;SDS011;11525;51.152;4.456;2022-10-31T13:58:24;22.65;;;13.07;;
22715;SDS011;11525;51.152;4.456;2022-10-31T14:01:20;26.02;;;10.52;;
22715;SDS011;11525;51.152;4.456;2022-10-31T14:04:16;15.75;;;10.70;;
22715;SDS011;11525;51.152;4.456;2022-10-31T14:07:21;18.30;;;10.25;;
22715;SDS011;11525;51.152;4.456;2022-10-31T14:10:33;22.27;;;10.55;;
22715;SDS011;11525;51.152;4.456;2022-10-31T14:13:33;22.20;;;10.63;;
22715;SDS011;11525;51.152;4.456;2022-10-31T14:19:21;24.48;;;11.02;;
22715;SDS011;11525;51.152;4.456;2022-10-31T14:22:19;19.35;;;10.45;;
22715;SDS011;11525;51.152;4.456;2022-10-31T14:24:54;17.35;;;10.88;;
22715;SDS011;11525;51.152;4.456;2022-10-31T14:27:46;21.55;;;10.80;;
22715;SDS011;11525;51.152;4.456;2022-10-31T14:30:16;19.10;;;10.27;;
22715;SDS011;11525;51.152;4.456;2022-10-31T14:33:00;20.52;;;10.50;;
22715;SDS011;11525;51.152;4.456;2022-10-31T14:36:26;20.27;;;10.88;;
22715;SDS011;11525;51.152;4.456;2022-10-31T14:41:38;18.30;;;10.60;;
22715;SDS011;11525;51.152;4.456;2022-10-31T14:53:05;18.50;;;10.95;;
22715;SDS011;11525;51.152;4.456;2022-10-31T14:55:52;17.95;;;10.40;;
22715;SDS011;11525;51.152;4.456;2022-10-31T15:01:32;20.15;;;11.20;;
22715;SDS011;11525;51.152;4.456;2022-10-31T15:13:40;19.20;;;9.95;;
22715;SDS011;11525;51.152;4.456;2022-10-31T15:15:55;24.70;;;10.80;;
22715;SDS011;11525;51.152;4.456;2022-10-31T15:18:33;25.00;;;10.10;;
22715;SDS011;11525;51.152;4.456;2022-10-31T15:21:31;21.25;;;10.63;;
22715;SDS011;11525;51.152;4.456;2022-10-31T15:24:16;27.08;;;9.70;;
22715;SDS011;11525;51.152;4.456;2022-10-31T15:26:49;21.60;;;9.63;;
22715;SDS011;11525;51.152;4.456;2022-10-31T15:29:19;24.98;;;9.75;;
22715;SDS011;11525;51.152;4.456;2022-10-31T15:32:00;20.42;;;10.30;;
22715;SDS011;11525;51.152;4.456;2022-10-31T15:48:17;17.83;;;9.38;;
22715;SDS011;11525;51.152;4.456;2022-10-31T15:51:27;20.85;;;9.55;;
22715;SDS011;11525;51.152;4.456;2022-10-31T15:54:34;16.27;;;9.65;;
22715;SDS011;11525;51.152;4.456;2022-10-31T15:57:11;16.70;;;9.05;;
22715;SDS011;11525;51.152;4.456;2022-10-31T15:59:56;16.35;;;9.57;;
22715;SDS011;11525;51.152;4.456;2022-10-31T16:02:34;20.33;;;10.07;;
22715;SDS011;11525;51.152;4.456;2022-10-31T16:05:45;20.50;;;9.55;;
22715;SDS011;11525;51.152;4.456;2022-10-31T16:08:49;21.77;;;9.43;;
22715;SDS011;11525;51.152;4.456;2022-10-31T16:11:39;18.73;;;9.38;;
22715;SDS011;11525;51.152;4.456;2022-10-31T16:14:22;18.98;;;9.90;;
22715;SDS011;11525;51.152;4.456;2022-10-31T16:17:14;23.70;;;9.63;;
22715;SDS011;11525;51.152;4.456;2022-10-31T16:23:28;18.02;;;11.68;;
22715;SDS011;11525;51.152;4.456;2022-10-31T16:26:34;28.50;;;10.90;;
22715;SDS011;11525;51.152;4.456;2022-10-31T16:29:03;22.63;;;11.18;;
22715;SDS011;11525;51.152;4.456;2022-10-31T16:38:29;24.60;;;12.90;;
22715;SDS011;11525;51.152;4.456;2022-10-31T16:41:11;33.40;;;14.45;;
22715;SDS011;11525;51.152;4.456;2022-10-31T16:44:36;28.35;;;15.00;;
22715;SDS011;11525;51.152;4.456;2022-10-31T16:47:11;30.70;;;14.40;;
22715;SDS011;11525;51.152;4.456;2022-10-31T17:03:14;32.20;;;16.55;;
22715;SDS011;11525;51.152;4.456;2022-10-31T17:09:28;39.22;;;17.77;;
22715;SDS011;11525;51.152;4.456;2022-10-31T17:19:18;38.35;;;19.73;;
22715;SDS011;11525;51.152;4.456;2022-10-31T17:28:50;32.10;;;17.85;;
22715;SDS011;11525;51.152;4.456;2022-10-31T17:31:56;38.92;;;19.85;;
22715;SDS011;11525;51.152;4.456;2022-10-31T17:35:22;38.47;;;18.00;;
22715;SDS011;11525;51.152;4.456;2022-10-31T17:45:16;31.17;;;17.30;;
22715;SDS011;11525;51.152;4.456;2022-10-31T17:52:12;32.47;;;16.70;;
22715;SDS011;11525;51.152;4.456;2022-10-31T18:02:21;23.38;;;14.88;;
22715;SDS011;11525;51.152;4.456;2022-10-31T18:05:10;22.50;;;13.50;;
22715;SDS011;11525;51.152;4.456;2022-10-31T18:11:45;22.70;;;14.00;;
22715;SDS011;11525;51.152;4.456;2022-10-31T18:14:05;27.67;;;13.75;;
22715;SDS011;11525;51.152;4.456;2022-10-31T18:19:42;29.20;;;14.27;;
22715;SDS011;11525;51.152;4.456;2022-10-31T18:22:08;23.13;;;13.98;;
22715;SDS011;11525;51.152;4.456;2022-10-31T18:24:39;25.08;;;14.73;;
22715;SDS011;11525;51.152;4.456;2022-10-31T18:27:05;33.55;;;15.48;;
22715;SDS011;11525;51.152;4.456;2022-10-31T18:29:34;23.13;;;13.63;;
22715;SDS011;11525;51.152;4.456;2022-10-31T18:32:03;31.55;;;14.65;;
22715;SDS011;11525;51.152;4.456;2022-10-31T18:34:31;23.05;;;13.63;;
22715;SDS011;11525;51.152;4.456;2022-10-31T18:36:58;23.17;;;12.63;;
22715;SDS011;11525;51.152;4.456;2022-10-31T18:39:23;24.58;;;13.68;;
22715;SDS011;11525;51.152;4.456;2022-10-31T18:41:49;23.65;;;12.90;;
22715;SDS011;11525;51.152;4.456;2022-10-31T18:44:18;23.10;;;13.00;;
22715;SDS011;11525;51.152;4.456;2022-10-31T18:46:44;22.83;;;12.32;;
22715;SDS011;11525;51.152;4.456;2022-10-31T18:49:12;22.38;;;11.05;;
22715;SDS011;11525;51.152;4.456;2022-10-31T18:51:39;25.77;;;11.95;;
22715;SDS011;11525;51.152;4.456;2022-10-31T18:54:11;25.08;;;10.82;;
22715;SDS011;11525;51.152;4.456;2022-10-31T18:56:37;24.95;;;11.15;;
22715;SDS011;11525;51.152;4.456;2022-10-31T18:59:03;22.08;;;10.57;;
22715;SDS011;11525;51.152;4.456;2022-10-31T19:01:32;20.48;;;10.32;;
22715;SDS011;11525;51.152;4.456;2022-10-31T19:03:58;21.95;;;11.90;;
22715;SDS011;11525;51.152;4.456;2022-10-31T19:06:40;18.63;;;10.55;;
22715;SDS011;11525;51.152;4.456;2022-10-31T19:09:06;23.33;;;10.32;;
22715;SDS011;11525;51.152;4.456;2022-10-31T19:11:35;26.25;;;11.98;;
22715;SDS011;11525;51.152;4.456;2022-10-31T19:14:02;22.58;;;11.73;;
22715;SDS011;11525;51.152;4.456;2022-10-31T19:16:29;19.27;;;10.55;;
22715;SDS011;11525;51.152;4.456;2022-10-31T19:18:56;21.25;;;11.93;;
22715;SDS011;11525;51.152;4.456;2022-10-31T19:21:25;16.35;;;9.82;;
22715;SDS011;11525;51.152;4.456;2022-10-31T19:23:52;27.98;;;10.73;;
22715;SDS011;11525;51.152;4.456;2022-10-31T19:26:20;19.58;;;10.20;;
22715;SDS011;11525;51.152;4.456;2022-10-31T19:28:46;16.80;;;10.15;;
22715;SDS011;11525;51.152;4.456;2022-10-31T19:31:14;25.60;;;11.07;;
22715;SDS011;11525;51.152;4.456;2022-10-31T19:33:44;18.55;;;9.13;;
22715;SDS011;11525;51.152;4.456;2022-10-31T19:36:14;20.08;;;10.07;;
22715;SDS011;11525;51.152;4.456;2022-10-31T19:38:43;18.02;;;11.07;;
22715;SDS011;11525;51.152;4.456;2022-10-31T19:43:50;19.38;;;10.73;;
22715;SDS011;11525;51.152;4.456;2022-10-31T19:46:17;24.08;;;10.35;;
22715;SDS011;11525;51.152;4.456;2022-10-31T19:48:44;14.95;;;9.52;;
22715;SDS011;11525;51.152;4.456;2022-10-31T19:51:17;21.10;;;10.93;;
22715;SDS011;11525;51.152;4.456;2022-10-31T19:53:47;17.40;;;10.40;;
22715;SDS011;11525;51.152;4.456;2022-10-31T19:56:15;20.33;;;9.38;;
22715;SDS011;11525;51.152;4.456;2022-10-31T19:58:42;28.73;;;10.80;;
22715;SDS011;11525;51.152;4.456;2022-10-31T20:01:11;19.95;;;10.55;;
22715;SDS011;11525;51.152;4.456;2022-10-31T20:03:42;21.48;;;10.25;;
22715;SDS011;11525;51.152;4.456;2022-10-31T20:08:54;22.25;;;10.65;;
22715;SDS011;11525;51.152;4.456;2022-10-31T20:11:21;15.32;;;9.95;;
22715;SDS011;11525;51.152;4.456;2022-10-31T20:13:48;18.27;;;9.77;;
22715;SDS011;11525;51.152;4.456;2022-10-31T20:16:33;22.75;;;10.50;;
22715;SDS011;11525;51.152;4.456;2022-10-31T20:19:02;19.63;;;10.00;;
22715;SDS011;11525;51.152;4.456;2022-10-31T20:21:34;22.42;;;10.43;;
22715;SDS011;11525;51.152;4.456;2022-10-31T20:24:07;20.48;;;11.85;;
22715;SDS011;11525;51.152;4.456;2022-10-31T20:26:39;20.65;;;10.95;;
22715;SDS011;11525;51.152;4.456;2022-10-31T20:29:05;22.85;;;10.55;;
22715;SDS011;11525;51.152;4.456;2022-10-31T20:31:33;19.13;;;9.98;;
22715;SDS011;11525;51.152;4.456;2022-10-31T20:34:06;24.80;;;9.77;;
22715;SDS011;11525;51.152;4.456;2022-10-31T20:36:35;17.25;;;9.15;;
22715;SDS011;11525;51.152;4.456;2022-10-31T20:39:07;17.92;;;9.32;;
22715;SDS011;11525;51.152;4.456;2022-10-31T20:41:48;14.40;;;7.90;;
22715;SDS011;11525;51.152;4.456;2022-10-31T20:44:25;15.30;;;8.18;;
22715;SDS011;11525;51.152;4.456;2022-10-31T20:46:54;17.48;;;7.88;;
22715;SDS011;11525;51.152;4.456;2022-10-31T20:49:37;14.70;;;8.18;;
22715;SDS011;11525;51.152;4.456;2022-10-31T20:52:08;19.48;;;8.65;;
22715;SDS011;11525;51.152;4.456;2022-10-31T20:54:54;15.43;;;8.20;;
22715;SDS011;11525;51.152;4.456;2022-10-31T20:57:47;12.80;;;7.85;;
22715;SDS011;11525;51.152;4.456;2022-10-31T21:00:18;22.60;;;8.13;;
22715;SDS011;11525;51.152;4.456;2022-10-31T21:03:07;16.27;;;7.35;;
22715;SDS011;11525;51.152;4.456;2022-10-31T21:05:42;18.08;;;7.75;;
22715;SDS011;11525;51.152;4.456;2022-10-31T21:08:21;17.48;;;8.60;;
22715;SDS011;11525;51.152;4.456;2022-10-31T21:10:58;19.50;;;8.25;;
22715;SDS011;11525;51.152;4.456;2022-10-31T21:13:30;16.30;;;7.55;;
22715;SDS011;11525;51.152;4.456;2022-10-31T21:16:21;20.63;;;8.50;;
22715;SDS011;11525;51.152;4.456;2022-10-31T21:18:51;20.25;;;8.30;;
22715;SDS011;11525;51.152;4.456;2022-10-31T21:21:36;18.77;;;8.07;;
22715;SDS011;11525;51.152;4.456;2022-10-31T21:24:15;15.85;;;8.32;;
22715;SDS011;11525;51.152;4.456;2022-10-31T21:26:46;18.52;;;8.27;;
22715;SDS011;11525;51.152;4.456;2022-10-31T21:29:24;16.58;;;8.20;;
22715;SDS011;11525;51.152;4.456;2022-10-31T21:31:55;17.50;;;8.20;;
22715;SDS011;11525;51.152;4.456;2022-10-31T21:34:21;17.83;;;7.90;;
22715;SDS011;11525;51.152;4.456;2022-10-31T21:36:50;13.15;;;7.97;;
22715;SDS011;11525;51.152;4.456;2022-10-31T21:39:16;17.67;;;7.65;;
22715;SDS011;11525;51.152;4.456;2022-10-31T21:41:41;16.58;;;8.30;;
22715;SDS011;11525;51.152;4.456;2022-10-31T21:44:08;18.15;;;8.25;;
22715;SDS011;11525;51.152;4.456;2022-10-31T21:46:34;17.52;;;8.35;;
22715;SDS011;11525;51.152;4.456;2022-10-31T21:49:02;15.13;;;7.47;;
22715;SDS011;11525;51.152;4.456;2022-10-31T21:51:31;17.92;;;8.32;;
22715;SDS011;11525;51.152;4.456;2022-10-31T21:54:03;17.35;;;8.45;;
22715;SDS011;11525;51.152;4.456;2022-10-31T21:56:48;14.82;;;8.57;;
22715;SDS011;11525;51.152;4.456;2022-10-31T21:59:15;17.65;;;8.43;;
22715;SDS011;11525;51.152;4.456;2022-10-31T22:01:50;15.70;;;7.32;;
22715;SDS011;11525;51.152;4.456;2022-10-31T22:04:16;14.75;;;8.30;;
22715;SDS011;11525;51.152;4.456;2022-10-31T22:06:49;21.38;;;9.05;;
22715;SDS011;11525;51.152;4.456;2022-10-31T22:09:17;18.92;;;8.70;;
22715;SDS011;11525;51.152;4.456;2022-10-31T22:11:47;17.10;;;8.23;;
22715;SDS011;11525;51.152;4.456;2022-10-31T22:14:16;17.63;;;7.55;;
22715;SDS011;11525;51.152;4.456;2022-10-31T22:16:45;16.83;;;8.45;;
22715;SDS011;11525;51.152;4.456;2022-10-31T22:19:17;17.50;;;7.53;;
22715;SDS011;11525;51.152;4.456;2022-10-31T22:21:45;15.25;;;7.18;;
22715;SDS011;11525;51.152;4.456;2022-10-31T22:24:18;15.40;;;7.50;;
22715;SDS011;11525;51.152;4.456;2022-10-31T22:26:46;14.27;;;6.90;;
22715;SDS011;11525;51.152;4.456;2022-10-31T22:29:18;18.90;;;7.60;;
22715;SDS011;11525;51.152;4.456;2022-10-31T22:31:46;17.98;;;7.78;;
22715;SDS011;11525;51.152;4.456;2022-10-31T22:34:14;12.45;;;7.53;;
22715;SDS011;11525;51.152;4.456;2022-10-31T22:36:41;15.85;;;8.43;;
22715;SDS011;11525;51.152;4.456;2022-10-31T22:39:08;14.68;;;7.22;;
22715;SDS011;11525;51.152;4.456;2022-10-31T22:41:38;18.75;;;7.70;;
22715;SDS011;11525;51.152;4.456;2022-10-31T22:44:09;17.05;;;7.35;;
22715;SDS011;11525;51.152;4.456;2022-10-31T22:46:35;13.68;;;6.80;;
22715;SDS011;11525;51.152;4.456;2022-10-31T22:49:06;11.57;;;7.10;;
22715;SDS011;11525;51.152;4.456;2022-10-31T22:51:39;19.42;;;7.68;;
22715;SDS011;11525;51.152;4.456;2022-10-31T22:54:09;12.23;;;7.22;;
22715;SDS011;11525;51.152;4.456;2022-10-31T22:56:41;14.50;;;7.88;;
22715;SDS011;11525;51.152;4.456;2022-10-31T22:59:13;13.00;;;7.22;;
22715;SDS011;11525;51.152;4.456;2022-10-31T23:01:46;12.40;;;6.97;;
22715;SDS011;11525;51.152;4.456;2022-10-31T23:04:21;13.40;;;7.10;;
22715;SDS011;11525;51.152;4.456;2022-10-31T23:06:52;18.75;;;7.72;;
22715;SDS011;11525;51.152;4.456;2022-10-31T23:09:24;13.07;;;6.80;;
22715;SDS011;11525;51.152;4.456;2022-10-31T23:11:50;13.20;;;6.75;;
22715;SDS011;11525;51.152;4.456;2022-10-31T23:14:19;13.48;;;7.22;;
22715;SDS011;11525;51.152;4.456;2022-10-31T23:17:01;11.98;;;6.80;;
22715;SDS011;11525;51.152;4.456;2022-10-31T23:19:28;15.00;;;7.05;;
22715;SDS011;11525;51.152;4.456;2022-10-31T23:21:55;17.45;;;7.03;;
22715;SDS011;11525;51.152;4.456;2022-10-31T23:24:37;15.27;;;6.78;;
22715;SDS011;11525;51.152;4.456;2022-10-31T23:29:44;17.60;;;6.93;;
22715;SDS011;11525;51.152;4.456;2022-10-31T23:32:12;14.18;;;7.00;;
22715;SDS011;11525;51.152;4.456;2022-10-31T23:34:38;9.25;;;6.25;;
22715;SDS011;11525;51.152;4.456;2022-10-31T23:37:04;11.95;;;7.03;;
22715;SDS011;11525;51.152;4.456;2022-10-31T23:39:30;9.35;;;5.82;;
22715;SDS011;11525;51.152;4.456;2022-10-31T23:42:14;18.13;;;6.82;;
22715;SDS011;11525;51.152;4.456;2022-10-31T23:44:46;10.63;;;5.25;;
22715;SDS011;11525;51.152;4.456;2022-10-31T23:47:16;12.35;;;6.68;;
22715;SDS011;11525;51.152;4.456;2022-10-31T23:49:42;10.40;;;5.95;;
22715;SDS011;11525;51.152;4.456;2022-10-31T23:52:14;11.18;;;5.63;;
22715;SDS011;11525;51.152;4.456;2022-10-31T23:57:25;9.93;;;5.65;;
22715;SDS011;11525;51.152;4.456;2022-10-31T23:59:56;12.13;;;5.80;;
